createdAt,value
2023-12-02T00:01:23.087Z,101368.91
2023-12-02T00:03:52.425Z,101368.91
2023-12-02T00:06:20.548Z,101369.78
2023-12-02T00:08:48.588Z,101371.50
2023-12-02T00:11:16.824Z,101377.59
2023-12-02T00:13:44.839Z,101378.47
2023-12-02T00:16:13.004Z,101375.00
2023-12-02T00:18:42.507Z,101386.38
2023-12-02T00:21:10.685Z,101378.50
2023-12-02T00:23:38.836Z,101375.84
2023-12-02T00:26:09.164Z,101372.41
2023-12-02T00:28:37.656Z,101378.50
2023-12-02T00:31:06.176Z,101375.88
2023-12-02T00:33:34.373Z,101382.88
2023-12-02T00:36:03.912Z,101383.78
2023-12-02T00:38:32.347Z,101384.66
2023-12-02T00:41:00.496Z,101383.75
2023-12-02T00:43:28.538Z,101384.66
2023-12-02T00:45:56.557Z,101383.78
2023-12-02T00:48:25.342Z,101370.66
2023-12-02T00:50:53.608Z,101385.53
2023-12-02T00:53:23.172Z,101384.66
2023-12-02T00:55:51.216Z,101388.16
2023-12-02T00:58:24.677Z,101381.19
2023-12-02T01:00:59.650Z,101386.41
2023-12-02T01:03:27.715Z,101382.00
2023-12-02T01:05:56.248Z,101382.88
2023-12-02T01:08:25.806Z,101386.38
2023-12-02T01:10:53.884Z,101381.97
2023-12-02T01:13:21.926Z,101386.38
2023-12-02T01:15:49.916Z,101388.97
2023-12-02T01:18:18.196Z,101388.97
2023-12-02T01:20:46.407Z,101383.72
2023-12-02T01:23:14.447Z,101388.94
2023-12-02T01:25:44.003Z,101398.53
2023-12-02T01:28:12.047Z,101389.81
2023-12-02T01:30:40.135Z,101397.72
2023-12-02T01:33:08.292Z,101398.59
2023-12-02T01:35:36.377Z,101399.47
2023-12-02T01:38:04.629Z,101402.94
2023-12-02T01:40:32.617Z,101398.56
2023-12-02T01:43:04.946Z,101402.03
2023-12-02T01:45:33.085Z,101395.00
2023-12-02T01:48:01.354Z,101405.50
2023-12-02T01:50:29.761Z,101419.50
2023-12-02T01:52:57.751Z,101423.84
2023-12-02T01:55:26.673Z,101421.22
2023-12-02T01:57:54.739Z,101433.41
2023-12-02T02:00:24.996Z,101439.53
2023-12-02T02:02:53.179Z,101428.13
2023-12-02T02:05:21.497Z,101442.13
2023-12-02T02:07:49.577Z,101436.00
2023-12-02T02:10:17.566Z,101442.16
2023-12-02T02:12:45.627Z,101446.47
2023-12-02T02:15:14.010Z,101456.09
2023-12-02T02:17:43.642Z,101451.72
2023-12-02T02:20:12.853Z,101461.28
2023-12-02T02:22:42.332Z,101464.78
2023-12-02T02:25:10.876Z,101452.53
2023-12-02T02:27:39.070Z,101465.63
2023-12-02T02:30:08.547Z,101462.13
2023-12-02T02:32:37.218Z,101467.38
2023-12-02T02:35:05.863Z,101467.38
2023-12-02T02:37:35.145Z,101474.34
2023-12-02T02:40:06.961Z,101472.56
2023-12-02T02:42:35.013Z,101469.09
2023-12-02T02:45:03.180Z,101470.78
2023-12-02T02:47:31.404Z,101480.38
2023-12-02T02:49:59.676Z,101477.75
2023-12-02T02:52:28.632Z,101480.38
2023-12-02T02:54:56.664Z,101477.78
2023-12-02T02:57:27.101Z,101486.53
2023-12-02T02:59:55.444Z,101483.91
2023-12-02T03:02:23.538Z,101476.97
2023-12-02T03:04:51.609Z,101478.72
2023-12-02T03:07:19.901Z,101481.28
2023-12-02T03:09:47.965Z,101481.28
2023-12-02T03:12:16.097Z,101483.94
2023-12-02T03:14:45.659Z,101487.44
2023-12-02T03:17:13.962Z,101484.81
2023-12-02T03:19:43.062Z,101490.03
2023-12-02T03:22:11.079Z,101478.66
2023-12-02T03:24:39.179Z,101480.38
2023-12-02T03:27:07.600Z,101470.75
2023-12-02T03:29:36.870Z,101469.88
2023-12-02T03:32:07.452Z,101477.75
2023-12-02T03:34:35.523Z,101473.38
2023-12-02T03:37:05.219Z,101464.63
2023-12-02T03:39:33.541Z,101478.63
2023-12-02T03:42:01.686Z,101474.28
2023-12-02T03:44:29.772Z,101462.88
2023-12-02T03:46:57.932Z,101474.22
2023-12-02T03:49:27.606Z,101460.19
2023-12-02T03:51:55.735Z,101465.44
2023-12-02T03:54:23.809Z,101471.53
2023-12-02T03:56:52.163Z,101465.41
2023-12-02T03:59:20.183Z,101468.03
2023-12-02T04:01:48.331Z,101464.53
2023-12-02T04:04:16.500Z,101464.47
2023-12-02T04:06:46.163Z,101460.97
2023-12-02T04:09:14.391Z,101465.38
2023-12-02T04:11:42.567Z,101462.75
2023-12-02T04:14:10.646Z,101474.09
2023-12-02T04:16:41.998Z,101474.09
2023-12-02T04:19:10.246Z,101471.50
2023-12-02T04:21:38.463Z,101464.44
2023-12-02T04:24:08.754Z,101488.06
2023-12-02T04:26:37.916Z,101477.56
2023-12-02T04:29:06.079Z,101475.78
2023-12-02T04:31:34.670Z,101488.00
2023-12-02T04:34:02.934Z,101485.34
2023-12-02T04:36:31.967Z,101480.13
2023-12-02T04:39:00.285Z,101484.47
2023-12-02T04:41:29.714Z,101480.97
2023-12-02T04:43:57.782Z,101487.97
2023-12-02T04:46:25.825Z,101491.47
2023-12-02T04:48:53.992Z,101488.84
2023-12-02T04:51:22.202Z,101488.84
2023-12-02T04:53:51.503Z,101500.19
2023-12-02T04:56:19.588Z,101500.19
2023-12-02T04:58:49.008Z,101482.69
2023-12-02T05:01:17.060Z,101500.19
2023-12-02T05:03:45.188Z,101493.19
2023-12-02T05:06:15.450Z,101497.50
2023-12-02T05:08:44.601Z,101502.75
2023-12-02T05:11:18.672Z,101505.28
2023-12-02T05:13:48.352Z,101510.56
2023-12-02T05:16:16.461Z,101514.06
2023-12-02T05:18:44.760Z,101525.44
2023-12-02T05:21:12.855Z,101508.81
2023-12-02T05:23:41.407Z,101514.97
2023-12-02T05:26:09.924Z,101513.25
2023-12-02T05:28:38.143Z,101504.50
2023-12-02T05:31:08.525Z,101519.31
2023-12-02T05:33:36.575Z,101512.34
2023-12-02T05:36:04.958Z,101497.44
2023-12-02T05:38:33.088Z,101514.09
2023-12-02T05:41:01.119Z,101519.38
2023-12-02T05:43:29.222Z,101511.47
2023-12-02T05:45:57.349Z,101517.59
2023-12-02T05:48:27.182Z,101521.09
2023-12-02T05:50:55.353Z,101518.53
2023-12-02T05:53:24.357Z,101521.97
2023-12-02T05:55:52.408Z,101514.97
2023-12-02T05:58:20.530Z,101521.09
2023-12-02T06:00:49.334Z,101519.41
2023-12-02T06:03:17.442Z,101522.03
2023-12-02T06:05:46.896Z,101516.75
2023-12-02T06:08:15.431Z,101531.66
2023-12-02T06:10:43.531Z,101519.44
2023-12-02T06:13:11.700Z,101506.28
2023-12-02T06:15:39.777Z,101523.88
2023-12-02T06:18:08.108Z,101535.22
2023-12-02T06:20:36.164Z,101535.22
2023-12-02T06:23:05.597Z,101532.59
2023-12-02T06:25:33.683Z,101525.59
2023-12-02T06:28:01.733Z,101543.94
2023-12-02T06:30:29.844Z,101543.06
2023-12-02T06:32:58.109Z,101546.53
2023-12-02T06:35:26.333Z,101557.84
2023-12-02T06:37:54.403Z,101554.34
2023-12-02T06:40:23.983Z,101570.06
2023-12-02T06:42:52.052Z,101558.69
2023-12-02T06:45:20.198Z,101567.44
2023-12-02T06:47:48.321Z,101559.59
2023-12-02T06:50:16.498Z,101558.66
2023-12-02T06:52:44.564Z,101563.06
2023-12-02T06:57:45.585Z,101555.06
2023-12-02T07:00:15.275Z,101570.78
2023-12-02T07:02:43.993Z,101565.44
2023-12-02T07:05:12.070Z,101561.91
2023-12-02T07:07:40.085Z,101563.63
2023-12-02T07:10:08.547Z,101568.84
2023-12-02T07:12:36.665Z,101556.59
2023-12-02T07:15:07.968Z,101564.47
2023-12-02T07:17:36.236Z,101568.81
2023-12-02T07:20:04.507Z,101563.63
2023-12-02T07:22:32.529Z,101568.84
2023-12-02T07:25:00.535Z,101565.41
2023-12-02T07:27:30.142Z,101567.16
2023-12-02T07:32:30.626Z,101572.44
2023-12-02T07:34:58.693Z,101562.78
2023-12-02T07:37:26.727Z,101575.97
2023-12-02T07:39:54.823Z,101568.16
2023-12-02T07:42:22.807Z,101563.81
2023-12-02T07:44:51.129Z,101565.56
2023-12-02T07:47:19.375Z,101567.31
2023-12-02T07:49:48.928Z,101572.56
2023-12-02T07:52:16.975Z,101569.13
2023-12-02T07:54:45.055Z,101563.06
2023-12-02T07:57:13.163Z,101565.66
2023-12-02T07:59:41.515Z,101555.16
2023-12-02T08:02:09.762Z,101563.97
2023-12-02T08:04:37.854Z,101566.63
2023-12-02T08:07:09.033Z,101571.06
2023-12-02T08:09:37.216Z,101541.28
2023-12-02T08:12:05.894Z,101571.09
2023-12-02T08:14:33.995Z,101546.59
2023-12-02T08:17:02.230Z,101566.75
2023-12-02T08:19:30.426Z,101566.75
2023-12-02T08:21:58.783Z,101571.19
2023-12-02T08:24:28.311Z,101571.22
2023-12-02T08:26:56.363Z,101568.63
2023-12-02T08:29:24.420Z,101576.53
2023-12-02T08:31:53.921Z,101576.56
2023-12-02T08:34:23.576Z,101580.94
2023-12-02T08:36:51.631Z,101580.97
2023-12-02T08:39:19.658Z,101578.41
2023-12-02T08:41:49.169Z,101588.91
2023-12-02T08:44:18.149Z,101576.72
2023-12-02T08:46:46.403Z,101565.38
2023-12-02T08:49:14.582Z,101571.53
2023-12-02T08:51:42.990Z,101587.38
2023-12-02T08:54:11.065Z,101587.44
2023-12-02T08:56:39.216Z,101588.38
2023-12-02T08:59:09.450Z,101582.25
2023-12-02T09:01:36.618Z,101583.16
2023-12-02T09:04:04.952Z,101592.84
2023-12-02T09:06:35.438Z,101585.00
2023-12-02T09:09:04.475Z,101563.09
2023-12-02T09:11:32.613Z,101589.41
2023-12-02T09:14:00.788Z,101581.53
2023-12-02T09:16:30.694Z,101594.69
2023-12-02T09:18:59.043Z,101591.19
2023-12-02T09:21:40.234Z,101596.44
2023-12-02T09:24:34.263Z,101600.81
2023-12-02T09:27:06.658Z,101593.81
2023-12-02T09:29:36.814Z,101602.59
2023-12-02T09:32:10.533Z,101594.69
2023-12-02T09:34:58.014Z,101598.19
2023-12-02T09:37:55.158Z,101602.53
2023-12-02T09:40:36.631Z,101604.28
2023-12-02T09:43:14.352Z,101600.78
2023-12-02T09:45:46.811Z,101599.88
2023-12-02T09:48:19.981Z,101611.25
2023-12-02T09:50:51.796Z,101612.13
2023-12-02T09:53:22.519Z,101589.34
2023-12-02T09:55:52.470Z,101612.97
2023-12-02T09:58:24.000Z,101625.19
2023-12-02T10:00:53.122Z,101596.22
2023-12-02T10:03:52.526Z,101624.13
2023-12-02T10:06:35.747Z,101626.66
2023-12-02T10:09:08.752Z,101622.13
2023-12-02T10:11:40.498Z,101620.34
2023-12-02T10:14:11.435Z,101609.88
2023-12-02T10:16:40.038Z,101623.91
2023-12-02T10:19:12.311Z,101602.06
2023-12-02T10:21:41.957Z,101621.28
2023-12-02T10:24:11.244Z,101616.06
2023-12-02T10:26:43.015Z,101618.69
2023-12-02T10:29:14.445Z,101616.88
2023-12-02T10:31:48.180Z,101620.28
2023-12-02T10:34:23.367Z,101603.56
2023-12-02T10:36:51.583Z,101605.19
2023-12-02T10:39:25.090Z,101614.53
2023-12-02T10:41:54.356Z,101629.66
2023-12-02T10:44:22.893Z,101616.69
2023-12-02T10:46:50.993Z,101613.97
2023-12-02T10:49:20.631Z,101609.53
2023-12-02T10:52:40.355Z,101605.16
2023-12-02T10:54:39.272Z,101620.03
2023-12-02T10:57:08.807Z,101624.00
2023-12-02T10:59:37.625Z,101597.09
2023-12-02T11:02:20.089Z,101604.16
2023-12-02T11:04:49.606Z,101593.50
2023-12-02T11:07:17.893Z,101598.09
2023-12-02T11:09:53.959Z,101597.47
2023-12-02T11:12:24.656Z,101588.81
2023-12-02T11:14:55.263Z,101591.81
2023-12-02T11:17:27.621Z,101593.78
2023-12-02T11:20:10.358Z,101594.72
2023-12-02T11:22:46.890Z,101590.50
2023-12-02T11:25:27.956Z,101604.25
2023-12-02T11:28:00.079Z,101591.31
2023-12-02T11:30:37.734Z,101587.38
2023-12-02T11:33:10.954Z,101585.28
2023-12-02T11:35:43.199Z,101589.38
2023-12-02T11:38:16.989Z,101582.25
2023-12-02T11:40:53.173Z,101592.78
2023-12-02T11:43:26.891Z,101587.94
2023-12-02T11:45:57.009Z,101589.63
2023-12-02T11:48:28.942Z,101577.69
2023-12-02T11:51:16.383Z,101588.28
2023-12-02T11:53:54.512Z,101587.53
2023-12-02T11:56:23.715Z,101585.59
2023-12-02T11:58:53.855Z,101578.69
2023-12-02T12:01:48.090Z,101576.88
2023-12-02T12:04:42.046Z,101578.41
2023-12-02T12:07:18.555Z,101571.63
2023-12-02T12:09:50.600Z,101574.22
2023-12-02T12:12:18.642Z,101554.88
2023-12-02T12:14:46.659Z,101568.38
2023-12-02T12:17:14.812Z,101562.13
2023-12-02T12:19:43.200Z,101569.41
2023-12-02T12:22:12.644Z,101564.63
2023-12-02T12:24:40.789Z,101559.47
2023-12-02T12:27:10.063Z,101562.44
2023-12-02T12:29:38.782Z,101561.81
2023-12-02T12:32:08.004Z,101560.94
2023-12-02T12:34:36.206Z,101553.97
2023-12-02T12:37:04.272Z,101551.69
2023-12-02T12:39:34.487Z,101547.03
2023-12-02T12:42:03.336Z,101548.06
2023-12-02T12:44:31.937Z,101547.88
2023-12-02T12:47:00.667Z,101539.00
2023-12-02T12:49:28.920Z,101547.47
2023-12-02T12:51:58.675Z,101538.94
2023-12-02T12:54:26.850Z,101539.59
2023-12-02T12:56:57.980Z,101536.72
2023-12-02T12:59:28.112Z,101533.22
2023-12-02T13:02:00.577Z,101528.78
2023-12-02T13:04:30.479Z,101528.94
2023-12-02T13:07:04.085Z,101515.38
2023-12-02T13:09:33.122Z,101507.75
2023-12-02T13:12:11.316Z,101507.97
2023-12-02T13:14:42.863Z,101495.66
2023-12-02T13:17:10.988Z,101501.63
2023-12-02T13:19:39.038Z,101499.16
2023-12-02T13:22:07.440Z,101509.66
2023-12-02T13:24:41.310Z,101510.44
2023-12-02T13:27:20.981Z,101479.06
2023-12-02T13:29:50.018Z,101491.22
2023-12-02T13:32:18.173Z,101501.81
2023-12-02T13:34:50.826Z,101480.94
2023-12-02T13:37:31.291Z,101495.78
2023-12-02T13:40:01.668Z,101499.44
2023-12-02T13:42:33.963Z,101503.09
2023-12-02T13:45:05.714Z,101486.34
2023-12-02T13:47:39.525Z,101510.28
2023-12-02T13:50:08.391Z,101506.31
2023-12-02T13:52:46.325Z,101495.94
2023-12-02T13:55:24.041Z,101503.59
2023-12-02T13:58:02.613Z,101507.56
2023-12-02T14:00:33.673Z,101502.13
2023-12-02T14:03:08.921Z,101500.44
2023-12-02T14:05:40.808Z,101499.59
2023-12-02T14:08:08.932Z,101493.59
2023-12-02T14:10:36.959Z,101495.47
2023-12-02T14:13:15.158Z,101494.53
2023-12-02T14:15:51.220Z,101497.22
2023-12-02T14:18:53.873Z,101494.91
2023-12-02T14:21:28.072Z,101485.31
2023-12-02T14:24:13.861Z,101483.63
2023-12-02T14:26:54.565Z,101479.41
2023-12-02T14:29:46.458Z,101474.31
2023-12-02T14:32:22.936Z,101466.81
2023-12-02T14:35:13.657Z,101470.34
2023-12-02T14:37:57.208Z,101460.56
2023-12-02T14:40:52.827Z,101475.22
2023-12-02T14:43:31.205Z,101476.78
2023-12-02T14:46:00.841Z,101471.00
2023-12-02T14:48:29.536Z,101475.03
2023-12-02T14:50:58.664Z,101470.22
2023-12-02T14:53:30.795Z,101464.31
2023-12-02T14:55:58.914Z,101468.91
2023-12-02T14:58:28.258Z,101464.34
2023-12-02T15:00:56.596Z,101474.47
2023-12-02T15:03:31.280Z,101467.59
2023-12-02T15:06:00.245Z,101472.97
2023-12-02T15:08:29.029Z,101465.72
2023-12-02T15:10:57.080Z,101469.72
2023-12-02T15:13:25.720Z,101462.34
2023-12-02T15:15:54.505Z,101467.97
2023-12-02T15:18:23.074Z,101462.13
2023-12-02T15:21:04.864Z,101465.94
2023-12-02T15:23:39.715Z,101467.94
2023-12-02T15:26:11.712Z,101476.09
2023-12-02T15:28:54.164Z,101471.81
2023-12-02T15:31:32.273Z,101457.97
2023-12-02T15:34:02.674Z,101462.38
2023-12-02T15:36:32.888Z,101460.56
2023-12-02T15:39:01.553Z,101465.81
2023-12-02T15:41:29.754Z,101470.09
2023-12-02T15:43:58.401Z,101467.44
2023-12-02T15:46:27.681Z,101477.09
2023-12-02T15:48:56.144Z,101475.38
2023-12-02T15:51:24.516Z,101472.75
2023-12-02T15:53:53.950Z,101482.44
2023-12-02T15:56:22.011Z,101473.69
2023-12-02T15:58:51.601Z,101477.09
2023-12-02T16:01:19.916Z,101475.31
2023-12-02T16:03:48.340Z,101463.09
2023-12-02T16:06:17.186Z,101463.00
2023-12-02T16:08:45.342Z,101472.78
2023-12-02T16:11:14.749Z,101468.47
2023-12-02T16:13:46.192Z,101464.16
2023-12-02T16:16:15.008Z,101463.25
2023-12-02T16:18:44.231Z,101468.53
2023-12-02T16:21:15.062Z,101465.94
2023-12-02T16:23:44.529Z,101459.84
2023-12-02T16:26:15.275Z,101470.38
2023-12-02T16:28:43.331Z,101461.56
2023-12-02T16:31:11.763Z,101451.91
2023-12-02T16:33:39.866Z,101458.03
2023-12-02T16:36:08.991Z,101427.44
2023-12-02T16:38:39.601Z,101455.28
2023-12-02T16:41:08.234Z,101460.53
2023-12-02T16:43:38.781Z,101465.81
2023-12-02T16:46:08.318Z,101464.00
2023-12-02T16:48:36.854Z,101455.25
2023-12-02T16:51:07.719Z,101478.81
2023-12-02T16:53:37.435Z,101467.28
2023-12-02T16:56:14.889Z,101471.78
2023-12-02T16:58:50.674Z,101457.69
2023-12-02T17:01:24.102Z,101437.66
2023-12-02T17:03:52.192Z,101453.41
2023-12-02T17:06:20.702Z,101456.00
2023-12-02T17:08:50.686Z,101461.31
2023-12-02T17:11:19.710Z,101455.16
2023-12-02T17:13:55.861Z,101437.75
2023-12-02T17:17:03.682Z,101446.50
2023-12-02T17:19:31.528Z,101414.31
2023-12-02T17:22:04.478Z,101430.03
2023-12-02T17:24:35.074Z,101424.00
2023-12-02T17:27:03.453Z,101423.16
2023-12-02T17:29:33.500Z,101416.16
2023-12-02T17:32:01.647Z,101422.38
2023-12-02T17:34:30.280Z,101417.97
2023-12-02T17:36:58.424Z,101423.31
2023-12-02T17:39:26.640Z,101415.31
2023-12-02T17:41:54.743Z,101416.16
2023-12-02T17:44:23.505Z,101414.38
2023-12-02T17:46:54.747Z,101406.56
2023-12-02T17:49:22.873Z,101418.75
2023-12-02T17:51:51.242Z,101402.03
2023-12-02T17:54:19.426Z,101392.38
2023-12-02T17:56:47.730Z,101398.53
2023-12-02T17:59:16.219Z,101394.09
2023-12-02T18:01:46.397Z,101391.41
2023-12-02T18:04:16.179Z,101391.41
2023-12-02T18:06:45.548Z,101400.09
2023-12-02T18:09:16.245Z,101391.22
2023-12-02T18:11:44.315Z,101391.22
2023-12-02T18:14:12.372Z,101380.59
2023-12-02T18:16:40.914Z,101380.56
2023-12-02T18:19:09.716Z,101374.38
2023-12-02T18:21:40.597Z,101380.47
2023-12-02T18:24:09.470Z,101377.84
2023-12-02T18:26:37.814Z,101379.59
2023-12-02T18:29:05.930Z,101372.47
2023-12-02T18:31:33.937Z,101373.34
2023-12-02T18:34:02.054Z,101363.69
2023-12-02T18:36:30.858Z,101369.81
2023-12-02T18:39:00.326Z,101372.56
2023-12-02T18:41:28.337Z,101367.22
2023-12-02T18:43:58.993Z,101379.59
2023-12-02T18:46:29.989Z,101371.59
2023-12-02T18:48:58.744Z,101360.97
2023-12-02T18:51:29.573Z,101362.72
2023-12-02T18:53:57.678Z,101357.53
2023-12-02T18:56:27.059Z,101350.53
2023-12-02T18:58:55.819Z,101345.25
2023-12-02T19:01:23.862Z,101347.03
2023-12-02T19:03:55.486Z,101349.72
2023-12-02T19:06:23.715Z,101351.38
2023-12-02T19:08:52.706Z,101334.72
2023-12-02T19:11:20.819Z,101327.53
2023-12-02T19:13:50.367Z,101325.03
2023-12-02T19:16:19.987Z,101323.16
2023-12-02T19:18:49.709Z,101326.75
2023-12-02T19:21:17.795Z,101330.97
2023-12-02T19:23:48.339Z,101340.56
2023-12-02T19:26:16.447Z,101344.91
2023-12-02T19:28:45.455Z,101328.06
2023-12-02T19:31:14.904Z,101327.19
2023-12-02T19:33:43.435Z,101325.28
2023-12-02T19:36:13.907Z,101324.38
2023-12-02T19:38:42.484Z,101323.50
2023-12-02T19:41:13.459Z,101325.22
2023-12-02T19:43:41.922Z,101317.25
2023-12-02T19:46:10.152Z,101315.50
2023-12-02T19:48:39.611Z,101309.28
2023-12-02T19:51:08.112Z,101307.50
2023-12-02T19:53:37.880Z,101308.34
2023-12-02T19:56:06.610Z,101293.50
2023-12-02T19:58:34.696Z,101303.00
2023-12-02T20:01:04.819Z,101303.88
2023-12-02T20:03:32.905Z,101303.00
2023-12-02T20:06:02.335Z,101300.34
2023-12-02T20:08:30.420Z,101289.78
2023-12-02T20:10:58.930Z,101294.34
2023-12-02T20:13:30.035Z,101294.28
2023-12-02T20:15:58.163Z,101288.13
2023-12-02T20:18:26.271Z,101288.16
2023-12-02T20:20:54.518Z,101282.81
2023-12-02T20:23:24.463Z,101288.13
2023-12-02T20:25:52.535Z,101283.72
2023-12-02T20:28:20.544Z,101291.50
2023-12-02T20:30:48.642Z,101285.28
2023-12-02T20:33:16.862Z,101279.00
2023-12-02T20:35:45.094Z,101271.84
2023-12-02T20:38:13.298Z,101276.22
2023-12-02T20:40:43.917Z,101279.75
2023-12-02T20:43:12.118Z,101277.00
2023-12-02T20:45:42.317Z,101281.34
2023-12-02T20:48:10.449Z,101279.53
2023-12-02T20:50:38.488Z,101271.59
2023-12-02T20:53:06.512Z,101279.34
2023-12-02T20:55:34.545Z,101292.50
2023-12-02T20:58:03.936Z,101283.69
2023-12-02T21:00:31.994Z,101280.16
2023-12-02T21:03:00.293Z,101269.63
2023-12-02T21:05:28.478Z,101258.16
2023-12-02T21:07:56.546Z,101248.41
2023-12-02T21:10:24.650Z,101248.41
2023-12-02T21:12:54.475Z,101243.13
2023-12-02T21:15:28.351Z,101229.13
2023-12-02T21:17:57.058Z,101223.81
2023-12-02T21:20:25.205Z,101219.47
2023-12-02T21:22:55.079Z,101215.09
2023-12-02T21:25:23.249Z,101209.81
2023-12-02T21:27:51.588Z,101195.88
2023-12-02T21:30:33.347Z,101199.41
2023-12-02T21:33:02.146Z,101203.66
2023-12-02T21:35:31.015Z,101193.00
2023-12-02T21:37:59.544Z,101175.44
2023-12-02T21:40:28.902Z,101189.44
2023-12-02T21:42:57.996Z,101187.63
2023-12-02T21:45:38.403Z,101192.84
2023-12-02T21:48:07.112Z,101202.50
2023-12-02T21:50:35.247Z,101200.72
2023-12-02T21:53:03.269Z,101201.50
2023-12-02T21:55:31.379Z,101198.09
2023-12-02T21:57:59.564Z,101185.63
2023-12-02T22:00:29.057Z,101202.28
2023-12-02T22:02:58.355Z,101192.53
2023-12-02T22:05:26.647Z,101188.16
2023-12-02T22:08:05.496Z,101180.38
2023-12-02T22:10:34.054Z,101198.81
2023-12-02T22:13:02.069Z,101197.09
2023-12-02T22:15:36.067Z,101194.34
2023-12-02T22:18:04.534Z,101188.16
2023-12-02T22:20:32.662Z,101188.94
2023-12-02T22:23:00.837Z,101182.75
2023-12-02T22:25:31.054Z,101177.47
2023-12-02T22:28:03.997Z,101167.75
2023-12-02T22:30:43.765Z,101167.91
2023-12-02T22:33:12.499Z,101157.28
2023-12-02T22:35:41.419Z,101165.28
2023-12-02T22:38:12.803Z,101149.47
2023-12-02T22:40:45.698Z,101153.88
2023-12-02T22:43:21.292Z,101151.22
2023-12-02T22:45:51.141Z,101142.47
2023-12-02T22:48:26.116Z,101135.47
2023-12-02T22:50:54.534Z,101148.56
2023-12-02T22:53:31.042Z,101137.94
2023-12-02T22:56:00.721Z,101140.53
2023-12-02T22:58:29.070Z,101137.94
2023-12-02T23:00:58.933Z,101134.41
2023-12-02T23:03:28.605Z,101133.47
2023-12-02T23:05:58.333Z,101138.66
2023-12-02T23:08:27.154Z,101129.88
2023-12-02T23:10:55.211Z,101122.13
2023-12-02T23:13:52.881Z,101141.50
2023-12-02T23:16:39.994Z,101134.59
2023-12-02T23:19:25.293Z,101138.66
2023-12-02T23:21:53.537Z,101139.53
2023-12-02T23:24:22.293Z,101155.34
2023-12-02T23:26:50.474Z,101135.19
2023-12-02T23:29:18.523Z,101160.56
2023-12-02T23:31:48.086Z,101149.19
2023-12-02T23:34:16.311Z,101154.41
2023-12-02T23:36:44.507Z,101153.59
2023-12-02T23:39:23.026Z,101134.31
2023-12-02T23:41:51.148Z,101144.81
2023-12-02T23:44:32.460Z,101148.34
2023-12-02T23:47:02.205Z,101145.88
2023-12-02T23:49:30.337Z,101144.19
2023-12-02T23:51:58.547Z,101140.91
2023-12-02T23:54:26.627Z,101140.09
2023-12-02T23:56:54.668Z,101148.09
2023-12-02T23:59:22.756Z,101146.38
